Airport Name : Spartanburg Downtown Mem

Other Name : Spartanburg

ICAO : KSPA

IATA :

FAA : SPA

Latitude : 34.915722

Longitude : -81.9565

Country : United States

Local Date and Time : 15 Jul 2024 10:34

 

TAF (Terminal Aerodrome Forecast)

 

METAR (METeorological Aerodrome Report)

KSPA 151435Z AUTO 00000KT 10SM CLR 28/20 A3007 RMK AO2

KSPA 151415Z AUTO 00000KT 10SM CLR 28/20 A3007 RMK AO2

KSPA 151355Z AUTO 00000KT 10SM CLR 29/20 A3007 RMK AO2

KSPA 151335Z AUTO 00000KT 10SM CLR 27/21 A3007 RMK AO2

KSPA 151315Z AUTO 00000KT 10SM SCT001 27/21 A3008 RMK AO2

KSPA 151255Z AUTO 00000KT 10SM CLR 26/21 A3007 RMK AO2

KSPA 151235Z AUTO 00000KT 10SM CLR 26/21 A3007 RMK AO2

KSPA 151215Z AUTO 00000KT 10SM CLR 26/21 A3007 RMK AO2

KSPA 151155Z AUTO 00000KT 10SM CLR 25/21 A3006 RMK AO2

KSPA 151135Z AUTO 00000KT 10SM CLR 23/22 A3006 RMK AO2

KSPA 151115Z AUTO 00000KT 10SM CLR 23/22 A3005 RMK AO2

KSPA 151055Z AUTO 00000KT 7SM CLR 22/21 A3005 RMK AO2